sensor_id;sensor_type;location;lat;lon;timestamp;P1;durP1;ratioP1;P2;durP2;ratioP2
54332;SDS011;40230;41.860;21.940;2022-11-15T00:01:41;31.55;;;22.33;;
54332;SDS011;40230;41.860;21.940;2022-11-15T00:04:07;30.40;;;21.77;;
54332;SDS011;40230;41.860;21.940;2022-11-15T00:06:33;34.28;;;21.88;;
54332;SDS011;40230;41.860;21.940;2022-11-15T00:09:00;33.63;;;22.70;;
54332;SDS011;40230;41.860;21.940;2022-11-15T00:11:26;35.80;;;23.67;;
54332;SDS011;40230;41.860;21.940;2022-11-15T00:16:37;45.17;;;29.98;;
54332;SDS011;40230;41.860;21.940;2022-11-15T00:19:03;35.05;;;23.98;;
54332;SDS011;40230;41.860;21.940;2022-11-15T00:21:29;35.30;;;24.45;;
54332;SDS011;40230;41.860;21.940;2022-11-15T00:23:55;33.35;;;22.60;;
54332;SDS011;40230;41.860;21.940;2022-11-15T00:26:21;29.75;;;21.45;;
54332;SDS011;40230;41.860;21.940;2022-11-15T00:28:47;29.38;;;21.10;;
54332;SDS011;40230;41.860;21.940;2022-11-15T00:31:14;53.15;;;36.28;;
54332;SDS011;40230;41.860;21.940;2022-11-15T00:33:42;34.30;;;25.00;;
54332;SDS011;40230;41.860;21.940;2022-11-15T00:36:08;41.30;;;27.25;;
54332;SDS011;40230;41.860;21.940;2022-11-15T00:38:36;51.50;;;36.65;;
54332;SDS011;40230;41.860;21.940;2022-11-15T00:41:03;38.20;;;26.88;;
54332;SDS011;40230;41.860;21.940;2022-11-15T00:43:29;38.42;;;27.60;;
54332;SDS011;40230;41.860;21.940;2022-11-15T00:45:55;36.92;;;25.30;;
54332;SDS011;40230;41.860;21.940;2022-11-15T00:48:22;37.17;;;27.40;;
54332;SDS011;40230;41.860;21.940;2022-11-15T00:50:48;36.25;;;24.25;;
54332;SDS011;40230;41.860;21.940;2022-11-15T00:53:15;31.48;;;22.20;;
54332;SDS011;40230;41.860;21.940;2022-11-15T00:55:41;36.78;;;26.30;;
54332;SDS011;40230;41.860;21.940;2022-11-15T00:58:07;31.63;;;22.45;;
54332;SDS011;40230;41.860;21.940;2022-11-15T01:00:33;28.92;;;21.80;;
54332;SDS011;40230;41.860;21.940;2022-11-15T01:03:02;35.63;;;23.35;;
54332;SDS011;40230;41.860;21.940;2022-11-15T01:05:28;31.95;;;22.98;;
54332;SDS011;40230;41.860;21.940;2022-11-15T01:07:54;33.08;;;23.60;;
54332;SDS011;40230;41.860;21.940;2022-11-15T01:10:21;37.03;;;25.33;;
54332;SDS011;40230;41.860;21.940;2022-11-15T01:12:48;32.67;;;23.27;;
54332;SDS011;40230;41.860;21.940;2022-11-15T01:15:14;31.38;;;21.92;;
54332;SDS011;40230;41.860;21.940;2022-11-15T01:17:40;36.83;;;25.17;;
54332;SDS011;40230;41.860;21.940;2022-11-15T01:20:06;29.25;;;21.38;;
54332;SDS011;40230;41.860;21.940;2022-11-15T01:22:32;32.00;;;21.75;;
54332;SDS011;40230;41.860;21.940;2022-11-15T01:24:58;33.85;;;23.05;;
54332;SDS011;40230;41.860;21.940;2022-11-15T01:27:25;33.85;;;20.45;;
54332;SDS011;40230;41.860;21.940;2022-11-15T01:29:51;27.60;;;20.13;;
54332;SDS011;40230;41.860;21.940;2022-11-15T01:32:17;27.33;;;20.15;;
54332;SDS011;40230;41.860;21.940;2022-11-15T01:34:43;28.52;;;21.40;;
54332;SDS011;40230;41.860;21.940;2022-11-15T01:37:09;30.67;;;19.95;;
54332;SDS011;40230;41.860;21.940;2022-11-15T01:39:35;28.02;;;19.58;;
54332;SDS011;40230;41.860;21.940;2022-11-15T01:42:01;26.30;;;19.58;;
54332;SDS011;40230;41.860;21.940;2022-11-15T01:49:39;27.77;;;20.75;;
54332;SDS011;40230;41.860;21.940;2022-11-15T01:52:07;25.98;;;17.75;;
54332;SDS011;40230;41.860;21.940;2022-11-15T01:54:34;25.67;;;18.50;;
54332;SDS011;40230;41.860;21.940;2022-11-15T01:59:45;27.80;;;19.10;;
54332;SDS011;40230;41.860;21.940;2022-11-15T02:02:12;26.85;;;19.60;;
54332;SDS011;40230;41.860;21.940;2022-11-15T02:04:46;26.27;;;19.30;;
54332;SDS011;40230;41.860;21.940;2022-11-15T02:07:13;29.63;;;20.00;;
54332;SDS011;40230;41.860;21.940;2022-11-15T02:09:40;28.85;;;19.85;;
54332;SDS011;40230;41.860;21.940;2022-11-15T02:12:06;28.08;;;19.05;;
54332;SDS011;40230;41.860;21.940;2022-11-15T02:14:34;27.48;;;19.65;;
54332;SDS011;40230;41.860;21.940;2022-11-15T02:24:43;26.05;;;18.67;;
54332;SDS011;40230;41.860;21.940;2022-11-15T02:29:56;26.67;;;19.83;;
54332;SDS011;40230;41.860;21.940;2022-11-15T02:35:19;31.17;;;21.25;;
54332;SDS011;40230;41.860;21.940;2022-11-15T02:37:58;33.78;;;22.35;;
54332;SDS011;40230;41.860;21.940;2022-11-15T02:43:00;27.10;;;18.65;;
54332;SDS011;40230;41.860;21.940;2022-11-15T02:45:48;28.60;;;20.30;;
54332;SDS011;40230;41.860;21.940;2022-11-15T02:48:16;29.65;;;20.15;;
54332;SDS011;40230;41.860;21.940;2022-11-15T02:50:43;27.08;;;20.35;;
54332;SDS011;40230;41.860;21.940;2022-11-15T02:53:09;29.75;;;21.35;;
54332;SDS011;40230;41.860;21.940;2022-11-15T02:55:37;31.42;;;21.13;;
54332;SDS011;40230;41.860;21.940;2022-11-15T03:00:47;27.17;;;19.08;;
54332;SDS011;40230;41.860;21.940;2022-11-15T03:08:16;25.88;;;20.13;;
54332;SDS011;40230;41.860;21.940;2022-11-15T03:10:51;29.67;;;20.98;;
54332;SDS011;40230;41.860;21.940;2022-11-15T03:15:51;31.77;;;20.38;;
54332;SDS011;40230;41.860;21.940;2022-11-15T03:18:19;30.10;;;20.05;;
54332;SDS011;40230;41.860;21.940;2022-11-15T03:20:47;30.33;;;20.95;;
54332;SDS011;40230;41.860;21.940;2022-11-15T03:23:14;27.23;;;19.35;;
54332;SDS011;40230;41.860;21.940;2022-11-15T03:25:41;26.90;;;18.33;;
54332;SDS011;40230;41.860;21.940;2022-11-15T03:28:10;29.33;;;19.52;;
54332;SDS011;40230;41.860;21.940;2022-11-15T03:30:38;31.52;;;21.00;;
54332;SDS011;40230;41.860;21.940;2022-11-15T03:33:06;27.45;;;19.00;;
54332;SDS011;40230;41.860;21.940;2022-11-15T03:35:36;27.02;;;18.55;;
54332;SDS011;40230;41.860;21.940;2022-11-15T03:38:17;25.30;;;18.20;;
54332;SDS011;40230;41.860;21.940;2022-11-15T03:40:47;25.00;;;18.38;;
54332;SDS011;40230;41.860;21.940;2022-11-15T03:43:16;26.48;;;18.83;;
54332;SDS011;40230;41.860;21.940;2022-11-15T03:45:52;28.10;;;18.77;;
54332;SDS011;40230;41.860;21.940;2022-11-15T03:48:21;26.23;;;18.58;;
54332;SDS011;40230;41.860;21.940;2022-11-15T03:50:48;30.15;;;20.02;;
54332;SDS011;40230;41.860;21.940;2022-11-15T03:53:14;27.60;;;20.17;;
54332;SDS011;40230;41.860;21.940;2022-11-15T03:55:41;26.30;;;18.80;;
54332;SDS011;40230;41.860;21.940;2022-11-15T03:58:07;28.40;;;20.45;;
54332;SDS011;40230;41.860;21.940;2022-11-15T04:00:33;25.73;;;18.08;;
54332;SDS011;40230;41.860;21.940;2022-11-15T04:02:59;32.45;;;22.08;;
54332;SDS011;40230;41.860;21.940;2022-11-15T04:05:25;27.42;;;20.35;;
54332;SDS011;40230;41.860;21.940;2022-11-15T04:07:51;29.48;;;20.15;;
54332;SDS011;40230;41.860;21.940;2022-11-15T04:10:17;27.52;;;19.45;;
54332;SDS011;40230;41.860;21.940;2022-11-15T04:12:44;27.58;;;18.90;;
54332;SDS011;40230;41.860;21.940;2022-11-15T04:15:13;31.55;;;19.45;;
54332;SDS011;40230;41.860;21.940;2022-11-15T04:17:46;29.27;;;21.52;;
54332;SDS011;40230;41.860;21.940;2022-11-15T04:20:14;33.35;;;20.30;;
54332;SDS011;40230;41.860;21.940;2022-11-15T04:23:00;30.45;;;21.77;;
54332;SDS011;40230;41.860;21.940;2022-11-15T04:25:45;30.63;;;18.75;;
54332;SDS011;40230;41.860;21.940;2022-11-15T04:28:11;29.35;;;19.70;;
54332;SDS011;40230;41.860;21.940;2022-11-15T04:30:37;29.38;;;21.05;;
54332;SDS011;40230;41.860;21.940;2022-11-15T04:33:04;31.00;;;21.38;;
54332;SDS011;40230;41.860;21.940;2022-11-15T04:35:30;29.80;;;19.98;;
54332;SDS011;40230;41.860;21.940;2022-11-15T04:37:57;33.28;;;21.85;;
54332;SDS011;40230;41.860;21.940;2022-11-15T04:40:23;32.00;;;21.48;;
54332;SDS011;40230;41.860;21.940;2022-11-15T04:42:49;30.38;;;21.00;;
54332;SDS011;40230;41.860;21.940;2022-11-15T04:45:15;35.33;;;23.17;;
54332;SDS011;40230;41.860;21.940;2022-11-15T04:47:45;33.45;;;23.27;;
54332;SDS011;40230;41.860;21.940;2022-11-15T04:50:11;33.70;;;23.08;;
54332;SDS011;40230;41.860;21.940;2022-11-15T04:52:41;36.83;;;21.73;;
54332;SDS011;40230;41.860;21.940;2022-11-15T04:55:08;35.60;;;22.73;;
54332;SDS011;40230;41.860;21.940;2022-11-15T04:57:34;30.80;;;22.35;;
54332;SDS011;40230;41.860;21.940;2022-11-15T05:00:01;32.95;;;23.88;;
54332;SDS011;40230;41.860;21.940;2022-11-15T05:02:28;32.08;;;22.85;;
54332;SDS011;40230;41.860;21.940;2022-11-15T05:05:14;29.55;;;21.55;;
54332;SDS011;40230;41.860;21.940;2022-11-15T05:07:40;30.80;;;21.25;;
54332;SDS011;40230;41.860;21.940;2022-11-15T05:10:06;28.45;;;20.80;;
54332;SDS011;40230;41.860;21.940;2022-11-15T05:12:32;31.95;;;22.35;;
54332;SDS011;40230;41.860;21.940;2022-11-15T05:14:58;29.70;;;20.25;;
54332;SDS011;40230;41.860;21.940;2022-11-15T05:17:24;26.88;;;18.77;;
54332;SDS011;40230;41.860;21.940;2022-11-15T05:19:50;30.88;;;20.42;;
54332;SDS011;40230;41.860;21.940;2022-11-15T05:22:17;32.60;;;22.17;;
54332;SDS011;40230;41.860;21.940;2022-11-15T05:24:43;28.23;;;20.48;;
54332;SDS011;40230;41.860;21.940;2022-11-15T05:27:09;29.58;;;21.35;;
54332;SDS011;40230;41.860;21.940;2022-11-15T05:29:35;28.55;;;20.60;;
54332;SDS011;40230;41.860;21.940;2022-11-15T05:32:03;31.92;;;22.25;;
54332;SDS011;40230;41.860;21.940;2022-11-15T05:34:29;32.90;;;22.75;;
54332;SDS011;40230;41.860;21.940;2022-11-15T05:36:55;32.28;;;22.75;;
54332;SDS011;40230;41.860;21.940;2022-11-15T05:39:21;32.72;;;21.90;;
54332;SDS011;40230;41.860;21.940;2022-11-15T05:41:48;36.50;;;24.63;;
54332;SDS011;40230;41.860;21.940;2022-11-15T05:44:18;35.53;;;24.65;;
54332;SDS011;40230;41.860;21.940;2022-11-15T05:46:45;36.28;;;25.63;;
54332;SDS011;40230;41.860;21.940;2022-11-15T05:49:13;37.80;;;26.02;;
54332;SDS011;40230;41.860;21.940;2022-11-15T05:51:39;38.72;;;27.52;;
54332;SDS011;40230;41.860;21.940;2022-11-15T05:54:07;33.88;;;24.90;;
54332;SDS011;40230;41.860;21.940;2022-11-15T05:56:33;39.50;;;25.70;;
54332;SDS011;40230;41.860;21.940;2022-11-15T05:58:59;35.67;;;25.58;;
54332;SDS011;40230;41.860;21.940;2022-11-15T06:01:25;34.22;;;24.08;;
54332;SDS011;40230;41.860;21.940;2022-11-15T06:03:52;33.90;;;23.30;;
54332;SDS011;40230;41.860;21.940;2022-11-15T06:06:18;38.08;;;24.25;;
54332;SDS011;40230;41.860;21.940;2022-11-15T06:08:44;33.15;;;23.45;;
54332;SDS011;40230;41.860;21.940;2022-11-15T06:11:10;32.80;;;22.92;;
54332;SDS011;40230;41.860;21.940;2022-11-15T06:13:36;30.63;;;23.00;;
54332;SDS011;40230;41.860;21.940;2022-11-15T06:16:02;36.63;;;23.50;;
54332;SDS011;40230;41.860;21.940;2022-11-15T06:18:31;43.05;;;27.08;;
54332;SDS011;40230;41.860;21.940;2022-11-15T06:21:00;43.15;;;26.88;;
54332;SDS011;40230;41.860;21.940;2022-11-15T06:23:27;35.33;;;24.02;;
54332;SDS011;40230;41.860;21.940;2022-11-15T06:25:53;37.15;;;24.63;;
54332;SDS011;40230;41.860;21.940;2022-11-15T06:28:19;49.00;;;38.78;;
54332;SDS011;40230;41.860;21.940;2022-11-15T06:30:48;49.97;;;38.50;;
54332;SDS011;40230;41.860;21.940;2022-11-15T06:33:14;58.75;;;45.38;;
54332;SDS011;40230;41.860;21.940;2022-11-15T06:35:40;49.95;;;31.08;;
54332;SDS011;40230;41.860;21.940;2022-11-15T06:38:10;53.13;;;35.90;;
54332;SDS011;40230;41.860;21.940;2022-11-15T06:40:37;44.15;;;29.02;;
54332;SDS011;40230;41.860;21.940;2022-11-15T06:43:03;42.65;;;28.90;;
54332;SDS011;40230;41.860;21.940;2022-11-15T06:45:30;38.63;;;28.88;;
54332;SDS011;40230;41.860;21.940;2022-11-15T06:47:56;41.90;;;31.92;;
54332;SDS011;40230;41.860;21.940;2022-11-15T06:50:22;46.03;;;30.02;;
54332;SDS011;40230;41.860;21.940;2022-11-15T06:52:48;49.13;;;32.85;;
54332;SDS011;40230;41.860;21.940;2022-11-15T06:55:14;49.47;;;28.88;;
54332;SDS011;40230;41.860;21.940;2022-11-15T06:57:47;45.17;;;29.15;;
54332;SDS011;40230;41.860;21.940;2022-11-15T07:00:14;43.00;;;31.23;;
54332;SDS011;40230;41.860;21.940;2022-11-15T07:02:40;46.65;;;32.38;;
54332;SDS011;40230;41.860;21.940;2022-11-15T07:05:07;54.67;;;40.03;;
54332;SDS011;40230;41.860;21.940;2022-11-15T07:07:33;74.13;;;56.40;;
54332;SDS011;40230;41.860;21.940;2022-11-15T07:09:59;100.68;;;76.82;;
54332;SDS011;40230;41.860;21.940;2022-11-15T07:12:25;91.70;;;66.60;;
54332;SDS011;40230;41.860;21.940;2022-11-15T07:14:51;85.50;;;61.75;;
54332;SDS011;40230;41.860;21.940;2022-11-15T07:17:17;78.97;;;53.13;;
54332;SDS011;40230;41.860;21.940;2022-11-15T07:19:43;82.78;;;50.90;;
54332;SDS011;40230;41.860;21.940;2022-11-15T07:22:09;74.75;;;45.05;;
54332;SDS011;40230;41.860;21.940;2022-11-15T07:24:35;81.20;;;46.35;;
54332;SDS011;40230;41.860;21.940;2022-11-15T07:27:01;96.55;;;55.45;;
54332;SDS011;40230;41.860;21.940;2022-11-15T07:29:27;92.10;;;53.05;;
54332;SDS011;40230;41.860;21.940;2022-11-15T07:31:53;81.85;;;44.05;;
54332;SDS011;40230;41.860;21.940;2022-11-15T07:34:19;57.70;;;35.33;;
54332;SDS011;40230;41.860;21.940;2022-11-15T07:36:46;47.72;;;29.95;;
54332;SDS011;40230;41.860;21.940;2022-11-15T07:39:12;78.63;;;39.63;;
54332;SDS011;40230;41.860;21.940;2022-11-15T07:41:39;163.82;;;57.72;;
54332;SDS011;40230;41.860;21.940;2022-11-15T07:44:05;78.40;;;34.78;;
54332;SDS011;40230;41.860;21.940;2022-11-15T07:46:31;132.90;;;51.97;;
54332;SDS011;40230;41.860;21.940;2022-11-15T07:48:57;131.57;;;52.58;;
54332;SDS011;40230;41.860;21.940;2022-11-15T07:51:23;159.93;;;58.55;;
54332;SDS011;40230;41.860;21.940;2022-11-15T07:53:49;143.35;;;53.50;;
54332;SDS011;40230;41.860;21.940;2022-11-15T07:56:18;132.93;;;50.03;;
54332;SDS011;40230;41.860;21.940;2022-11-15T07:58:45;133.70;;;51.28;;
54332;SDS011;40230;41.860;21.940;2022-11-15T08:01:15;161.77;;;59.03;;
54332;SDS011;40230;41.860;21.940;2022-11-15T08:03:41;101.72;;;43.75;;
54332;SDS011;40230;41.860;21.940;2022-11-15T08:06:07;73.63;;;34.72;;
54332;SDS011;40230;41.860;21.940;2022-11-15T08:08:33;109.70;;;46.33;;
54332;SDS011;40230;41.860;21.940;2022-11-15T08:10:59;132.02;;;49.75;;
54332;SDS011;40230;41.860;21.940;2022-11-15T08:13:26;179.05;;;61.13;;
54332;SDS011;40230;41.860;21.940;2022-11-15T08:15:56;105.05;;;41.58;;
54332;SDS011;40230;41.860;21.940;2022-11-15T08:18:23;152.02;;;56.08;;
54332;SDS011;40230;41.860;21.940;2022-11-15T08:20:49;116.72;;;50.65;;
54332;SDS011;40230;41.860;21.940;2022-11-15T08:23:15;87.20;;;45.35;;
54332;SDS011;40230;41.860;21.940;2022-11-15T08:25:42;160.95;;;57.70;;
54332;SDS011;40230;41.860;21.940;2022-11-15T08:30:52;85.97;;;39.00;;
54332;SDS011;40230;41.860;21.940;2022-11-15T08:33:18;204.05;;;64.72;;
54332;SDS011;40230;41.860;21.940;2022-11-15T08:35:44;87.65;;;38.38;;
54332;SDS011;40230;41.860;21.940;2022-11-15T08:38:10;138.93;;;50.05;;
54332;SDS011;40230;41.860;21.940;2022-11-15T08:40:37;103.13;;;41.03;;
54332;SDS011;40230;41.860;21.940;2022-11-15T08:43:03;129.80;;;46.70;;
54332;SDS011;40230;41.860;21.940;2022-11-15T08:45:30;135.40;;;51.55;;
54332;SDS011;40230;41.860;21.940;2022-11-15T08:47:56;126.90;;;47.00;;
54332;SDS011;40230;41.860;21.940;2022-11-15T08:50:22;534.70;;;167.60;;
54332;SDS011;40230;41.860;21.940;2022-11-15T08:52:48;782.45;;;299.38;;
54332;SDS011;40230;41.860;21.940;2022-11-15T08:55:14;189.27;;;67.55;;
54332;SDS011;40230;41.860;21.940;2022-11-15T08:57:40;75.25;;;38.08;;
54332;SDS011;40230;41.860;21.940;2022-11-15T09:00:07;172.95;;;63.45;;
54332;SDS011;40230;41.860;21.940;2022-11-15T09:02:33;87.40;;;40.78;;
54332;SDS011;40230;41.860;21.940;2022-11-15T09:04:59;105.18;;;43.10;;
54332;SDS011;40230;41.860;21.940;2022-11-15T09:07:25;97.20;;;40.15;;
54332;SDS011;40230;41.860;21.940;2022-11-15T09:09:51;143.43;;;50.25;;
54332;SDS011;40230;41.860;21.940;2022-11-15T09:12:17;99.18;;;42.70;;
54332;SDS011;40230;41.860;21.940;2022-11-15T09:14:43;191.75;;;84.13;;
54332;SDS011;40230;41.860;21.940;2022-11-15T09:17:09;86.20;;;40.47;;
54332;SDS011;40230;41.860;21.940;2022-11-15T09:19:35;119.65;;;56.17;;
54332;SDS011;40230;41.860;21.940;2022-11-15T09:22:04;138.50;;;53.10;;
54332;SDS011;40230;41.860;21.940;2022-11-15T09:24:32;83.88;;;37.53;;
54332;SDS011;40230;41.860;21.940;2022-11-15T09:26:58;83.15;;;34.60;;
54332;SDS011;40230;41.860;21.940;2022-11-15T09:29:24;93.60;;;39.05;;
54332;SDS011;40230;41.860;21.940;2022-11-15T09:31:53;95.07;;;39.45;;
54332;SDS011;40230;41.860;21.940;2022-11-15T09:34:19;105.45;;;42.50;;
54332;SDS011;40230;41.860;21.940;2022-11-15T09:36:46;85.18;;;38.28;;
54332;SDS011;40230;41.860;21.940;2022-11-15T09:39:12;84.38;;;52.72;;
54332;SDS011;40230;41.860;21.940;2022-11-15T09:49:35;134.60;;;58.67;;
54332;SDS011;40230;41.860;21.940;2022-11-15T09:52:01;96.53;;;49.55;;
54332;SDS011;40230;41.860;21.940;2022-11-15T09:57:15;59.78;;;35.42;;
54332;SDS011;40230;41.860;21.940;2022-11-15T10:02:37;53.92;;;31.40;;
54332;SDS011;40230;41.860;21.940;2022-11-15T10:05:10;51.80;;;30.38;;
54332;SDS011;40230;41.860;21.940;2022-11-15T10:07:40;37.55;;;26.55;;
54332;SDS011;40230;41.860;21.940;2022-11-15T10:15:19;32.08;;;21.30;;
54332;SDS011;40230;41.860;21.940;2022-11-15T10:23:23;25.25;;;20.30;;
54332;SDS011;40230;41.860;21.940;2022-11-15T10:25:53;36.97;;;24.42;;
54332;SDS011;40230;41.860;21.940;2022-11-15T10:28:30;40.25;;;33.78;;
54332;SDS011;40230;41.860;21.940;2022-11-15T10:30:57;48.15;;;34.00;;
54332;SDS011;40230;41.860;21.940;2022-11-15T10:41:08;28.52;;;20.73;;
54332;SDS011;40230;41.860;21.940;2022-11-15T10:43:34;34.13;;;22.77;;
54332;SDS011;40230;41.860;21.940;2022-11-15T10:46:04;37.03;;;28.88;;
54332;SDS011;40230;41.860;21.940;2022-11-15T10:48:48;44.70;;;40.00;;
54332;SDS011;40230;41.860;21.940;2022-11-15T10:51:21;48.00;;;31.20;;
54332;SDS011;40230;41.860;21.940;2022-11-15T10:53:50;58.25;;;34.00;;
54332;SDS011;40230;41.860;21.940;2022-11-15T10:56:17;127.93;;;83.13;;
54332;SDS011;40230;41.860;21.940;2022-11-15T10:58:56;95.10;;;85.28;;
54332;SDS011;40230;41.860;21.940;2022-11-15T11:01:23;62.45;;;54.10;;
54332;SDS011;40230;41.860;21.940;2022-11-15T11:04:08;68.57;;;59.90;;
54332;SDS011;40230;41.860;21.940;2022-11-15T11:09:38;62.63;;;54.45;;
54332;SDS011;40230;41.860;21.940;2022-11-15T11:12:10;69.60;;;61.97;;
54332;SDS011;40230;41.860;21.940;2022-11-15T11:14:38;77.13;;;68.05;;
54332;SDS011;40230;41.860;21.940;2022-11-15T11:22:38;71.75;;;63.92;;
54332;SDS011;40230;41.860;21.940;2022-11-15T11:25:50;64.80;;;53.85;;
54332;SDS011;40230;41.860;21.940;2022-11-15T11:30:45;82.45;;;59.78;;
54332;SDS011;40230;41.860;21.940;2022-11-15T11:33:17;73.55;;;52.10;;
54332;SDS011;40230;41.860;21.940;2022-11-15T11:35:50;83.45;;;53.88;;
54332;SDS011;40230;41.860;21.940;2022-11-15T11:38:19;62.08;;;43.50;;
54332;SDS011;40230;41.860;21.940;2022-11-15T11:51:28;59.35;;;39.78;;
54332;SDS011;40230;41.860;21.940;2022-11-15T11:53:57;59.85;;;36.65;;
54332;SDS011;40230;41.860;21.940;2022-11-15T11:56:34;46.30;;;31.70;;
54332;SDS011;40230;41.860;21.940;2022-11-15T11:59:05;63.03;;;35.20;;
54332;SDS011;40230;41.860;21.940;2022-11-15T12:01:37;53.53;;;33.40;;
54332;SDS011;40230;41.860;21.940;2022-11-15T12:04:16;53.58;;;33.95;;
54332;SDS011;40230;41.860;21.940;2022-11-15T12:06:59;44.80;;;29.85;;
54332;SDS011;40230;41.860;21.940;2022-11-15T12:12:39;42.03;;;31.20;;
54332;SDS011;40230;41.860;21.940;2022-11-15T12:15:17;154.13;;;68.10;;
54332;SDS011;40230;41.860;21.940;2022-11-15T12:17:47;271.35;;;104.13;;
54332;SDS011;40230;41.860;21.940;2022-11-15T12:28:00;129.65;;;59.15;;
54332;SDS011;40230;41.860;21.940;2022-11-15T12:30:31;107.55;;;56.20;;
54332;SDS011;40230;41.860;21.940;2022-11-15T12:33:03;100.90;;;51.00;;
54332;SDS011;40230;41.860;21.940;2022-11-15T12:37:58;82.60;;;53.83;;
54332;SDS011;40230;41.860;21.940;2022-11-15T12:45:39;63.67;;;43.65;;
54332;SDS011;40230;41.860;21.940;2022-11-15T12:58:38;41.78;;;31.08;;
54332;SDS011;40230;41.860;21.940;2022-11-15T13:01:08;38.78;;;29.25;;
54332;SDS011;40230;41.860;21.940;2022-11-15T13:03:35;37.85;;;27.20;;
54332;SDS011;40230;41.860;21.940;2022-11-15T13:06:03;43.38;;;30.30;;
54332;SDS011;40230;41.860;21.940;2022-11-15T13:13:59;62.22;;;46.10;;
54332;SDS011;40230;41.860;21.940;2022-11-15T13:16:26;61.17;;;45.63;;
54332;SDS011;40230;41.860;21.940;2022-11-15T13:18:53;50.78;;;37.55;;
54332;SDS011;40230;41.860;21.940;2022-11-15T13:21:21;51.28;;;33.63;;
54332;SDS011;40230;41.860;21.940;2022-11-15T13:24:10;54.25;;;37.95;;
54332;SDS011;40230;41.860;21.940;2022-11-15T13:26:38;71.60;;;53.50;;
54332;SDS011;40230;41.860;21.940;2022-11-15T13:29:12;52.13;;;39.25;;
54332;SDS011;40230;41.860;21.940;2022-11-15T13:31:41;60.25;;;43.40;;
54332;SDS011;40230;41.860;21.940;2022-11-15T13:36:40;61.15;;;45.00;;
54332;SDS011;40230;41.860;21.940;2022-11-15T13:39:12;66.55;;;48.63;;
54332;SDS011;40230;41.860;21.940;2022-11-15T13:41:47;33.43;;;26.60;;
54332;SDS011;40230;41.860;21.940;2022-11-15T13:44:21;32.75;;;24.73;;
54332;SDS011;40230;41.860;21.940;2022-11-15T13:46:47;32.00;;;23.75;;
54332;SDS011;40230;41.860;21.940;2022-11-15T13:49:13;39.13;;;27.67;;
54332;SDS011;40230;41.860;21.940;2022-11-15T13:56:32;190.23;;;82.32;;
54332;SDS011;40230;41.860;21.940;2022-11-15T13:58:59;293.00;;;110.40;;
54332;SDS011;40230;41.860;21.940;2022-11-15T14:01:26;290.40;;;107.88;;
54332;SDS011;40230;41.860;21.940;2022-11-15T14:03:56;255.98;;;96.97;;
54332;SDS011;40230;41.860;21.940;2022-11-15T14:06:23;257.95;;;94.60;;
54332;SDS011;40230;41.860;21.940;2022-11-15T14:16:37;174.85;;;74.07;;
54332;SDS011;40230;41.860;21.940;2022-11-15T14:19:04;147.30;;;71.43;;
54332;SDS011;40230;41.860;21.940;2022-11-15T14:21:30;51.58;;;31.08;;
54332;SDS011;40230;41.860;21.940;2022-11-15T14:26:41;41.38;;;28.52;;
54332;SDS011;40230;41.860;21.940;2022-11-15T14:31:53;38.30;;;28.48;;
54332;SDS011;40230;41.860;21.940;2022-11-15T14:34:19;47.05;;;33.60;;
54332;SDS011;40230;41.860;21.940;2022-11-15T14:36:47;49.25;;;35.85;;
54332;SDS011;40230;41.860;21.940;2022-11-15T14:39:13;64.80;;;47.42;;
54332;SDS011;40230;41.860;21.940;2022-11-15T14:41:39;62.72;;;45.58;;
54332;SDS011;40230;41.860;21.940;2022-11-15T14:44:05;57.10;;;42.80;;
54332;SDS011;40230;41.860;21.940;2022-11-15T14:46:32;78.10;;;55.22;;
54332;SDS011;40230;41.860;21.940;2022-11-15T14:48:58;65.03;;;48.20;;
54332;SDS011;40230;41.860;21.940;2022-11-15T14:51:24;62.25;;;46.80;;
54332;SDS011;40230;41.860;21.940;2022-11-15T14:53:51;62.65;;;47.40;;
54332;SDS011;40230;41.860;21.940;2022-11-15T14:56:17;67.97;;;52.63;;
54332;SDS011;40230;41.860;21.940;2022-11-15T14:58:43;69.90;;;50.63;;
54332;SDS011;40230;41.860;21.940;2022-11-15T15:01:30;83.68;;;60.42;;
54332;SDS011;40230;41.860;21.940;2022-11-15T15:03:57;66.70;;;49.08;;
54332;SDS011;40230;41.860;21.940;2022-11-15T15:06:23;71.72;;;52.50;;
54332;SDS011;40230;41.860;21.940;2022-11-15T15:08:49;102.28;;;68.28;;
54332;SDS011;40230;41.860;21.940;2022-11-15T15:11:21;89.10;;;61.35;;
54332;SDS011;40230;41.860;21.940;2022-11-15T15:13:48;92.65;;;66.68;;
54332;SDS011;40230;41.860;21.940;2022-11-15T15:16:14;92.35;;;69.32;;
54332;SDS011;40230;41.860;21.940;2022-11-15T15:18:40;86.00;;;64.32;;
54332;SDS011;40230;41.860;21.940;2022-11-15T15:23:52;74.60;;;54.30;;
54332;SDS011;40230;41.860;21.940;2022-11-15T15:26:22;95.80;;;66.70;;
54332;SDS011;40230;41.860;21.940;2022-11-15T15:28:49;94.95;;;66.80;;
54332;SDS011;40230;41.860;21.940;2022-11-15T15:31:16;83.55;;;59.38;;
54332;SDS011;40230;41.860;21.940;2022-11-15T15:33:42;81.10;;;57.63;;
54332;SDS011;40230;41.860;21.940;2022-11-15T15:36:12;81.57;;;57.80;;
54332;SDS011;40230;41.860;21.940;2022-11-15T15:38:39;73.15;;;53.00;;
54332;SDS011;40230;41.860;21.940;2022-11-15T15:41:12;73.13;;;53.70;;
54332;SDS011;40230;41.860;21.940;2022-11-15T15:43:39;59.70;;;45.70;;
54332;SDS011;40230;41.860;21.940;2022-11-15T15:46:09;66.53;;;46.80;;
54332;SDS011;40230;41.860;21.940;2022-11-15T15:48:37;68.18;;;49.35;;
54332;SDS011;40230;41.860;21.940;2022-11-15T15:51:04;62.80;;;43.60;;
54332;SDS011;40230;41.860;21.940;2022-11-15T15:53:30;72.18;;;50.10;;
54332;SDS011;40230;41.860;21.940;2022-11-15T15:55:56;81.13;;;54.33;;
54332;SDS011;40230;41.860;21.940;2022-11-15T15:58:23;89.40;;;57.72;;
54332;SDS011;40230;41.860;21.940;2022-11-15T16:00:49;95.75;;;63.88;;
54332;SDS011;40230;41.860;21.940;2022-11-15T16:03:15;109.25;;;68.65;;
54332;SDS011;40230;41.860;21.940;2022-11-15T16:05:41;103.53;;;66.43;;
54332;SDS011;40230;41.860;21.940;2022-11-15T16:08:25;120.68;;;90.97;;
54332;SDS011;40230;41.860;21.940;2022-11-15T16:10:55;123.60;;;91.45;;
54332;SDS011;40230;41.860;21.940;2022-11-15T16:13:21;142.45;;;105.63;;
54332;SDS011;40230;41.860;21.940;2022-11-15T16:15:49;119.57;;;86.95;;
54332;SDS011;40230;41.860;21.940;2022-11-15T16:18:16;95.10;;;71.40;;
54332;SDS011;40230;41.860;21.940;2022-11-15T16:20:44;80.28;;;58.38;;
54332;SDS011;40230;41.860;21.940;2022-11-15T16:23:11;90.60;;;65.25;;
54332;SDS011;40230;41.860;21.940;2022-11-15T16:25:45;96.10;;;71.45;;
54332;SDS011;40230;41.860;21.940;2022-11-15T16:28:34;92.72;;;62.55;;
54332;SDS011;40230;41.860;21.940;2022-11-15T16:33:26;97.20;;;64.95;;
54332;SDS011;40230;41.860;21.940;2022-11-15T16:35:52;87.43;;;63.78;;
54332;SDS011;40230;41.860;21.940;2022-11-15T16:38:18;83.35;;;63.75;;
54332;SDS011;40230;41.860;21.940;2022-11-15T16:40:44;97.30;;;63.75;;
54332;SDS011;40230;41.860;21.940;2022-11-15T16:43:11;89.85;;;60.05;;
54332;SDS011;40230;41.860;21.940;2022-11-15T16:45:37;93.80;;;59.30;;